createdAt,value
2022-09-17T00:01:27.332Z,0.60
2022-09-17T00:03:57.358Z,0.20
2022-09-17T00:06:26.262Z,0.30
2022-09-17T00:08:54.389Z,0.50
2022-09-17T00:11:27.660Z,0.22
2022-09-17T00:13:55.464Z,0.30
2022-09-17T00:16:30.226Z,0.38
2022-09-17T00:18:58.356Z,0.30
2022-09-17T00:21:26.442Z,0.30
2022-09-17T00:23:58.750Z,0.20
2022-09-17T00:26:27.435Z,0.25
2022-09-17T00:28:56.281Z,0.30
2022-09-17T00:31:24.418Z,0.47
2022-09-17T00:33:52.254Z,0.28
2022-09-17T00:36:20.702Z,0.22
2022-09-17T00:38:52.797Z,0.30
2022-09-17T00:41:21.426Z,0.30
2022-09-17T00:43:52.118Z,0.50
2022-09-17T00:46:37.494Z,0.40
2022-09-17T00:49:28.622Z,0.20
2022-09-17T00:52:08.616Z,0.20
2022-09-17T00:54:38.262Z,0.20
2022-09-17T00:57:05.946Z,0.30
2022-09-17T00:59:33.579Z,0.30
2022-09-17T01:02:01.327Z,0.20
2022-09-17T01:04:28.654Z,0.20
2022-09-17T01:07:26.894Z,0.20
2022-09-17T01:10:21.396Z,0.20
2022-09-17T01:13:13.956Z,0.30
2022-09-17T01:16:02.586Z,0.30
2022-09-17T01:18:29.770Z,0.30
2022-09-17T01:21:24.528Z,0.30
2022-09-17T01:23:57.916Z,0.30
2022-09-17T01:26:46.931Z,0.20
2022-09-17T01:29:35.198Z,0.20
2022-09-17T01:32:32.895Z,0.20
2022-09-17T01:35:03.994Z,0.25
2022-09-17T01:37:52.852Z,0.20
2022-09-17T01:40:39.947Z,0.20
2022-09-17T01:43:13.544Z,0.30
2022-09-17T01:45:52.132Z,0.40
2022-09-17T01:48:23.309Z,0.35
2022-09-17T01:51:06.417Z,0.40
2022-09-17T01:54:15.835Z,0.32
2022-09-17T01:56:52.178Z,0.30
2022-09-17T01:59:27.280Z,0.47
2022-09-17T02:02:02.032Z,0.30
2022-09-17T02:04:38.604Z,0.50
2022-09-17T02:07:11.503Z,0.30
2022-09-17T02:09:44.540Z,0.60
2022-09-17T02:12:19.044Z,0.52
2022-09-17T02:14:56.851Z,0.40
2022-09-17T02:17:40.216Z,0.52
2022-09-17T02:20:08.151Z,0.28
2022-09-17T02:22:56.842Z,0.40
2022-09-17T02:25:36.210Z,0.85
2022-09-17T02:28:20.213Z,0.30
2022-09-17T02:30:47.552Z,0.40
2022-09-17T02:33:16.118Z,0.57
2022-09-17T02:35:44.354Z,0.40
2022-09-17T02:38:11.586Z,0.50
2022-09-17T02:40:48.870Z,0.50
2022-09-17T02:43:55.432Z,0.40
2022-09-17T02:47:04.005Z,0.40
2022-09-17T02:49:52.323Z,0.85
2022-09-17T02:52:32.866Z,0.60
2022-09-17T02:55:36.690Z,0.60
2022-09-17T02:58:24.891Z,0.50
2022-09-17T03:00:53.966Z,0.68
2022-09-17T03:03:32.354Z,0.38
2022-09-17T03:06:00.604Z,0.73
2022-09-17T03:08:30.584Z,0.40
2022-09-17T03:10:58.189Z,0.40
2022-09-17T03:13:25.818Z,0.50
2022-09-17T03:15:53.112Z,0.60
2022-09-17T03:18:20.353Z,1.15
2022-09-17T03:20:47.714Z,0.50
2022-09-17T03:23:14.911Z,0.55
2022-09-17T03:25:42.461Z,0.60
2022-09-17T03:28:11.468Z,0.57
2022-09-17T03:30:38.879Z,0.60
2022-09-17T03:33:06.198Z,0.77
2022-09-17T03:35:33.520Z,0.40
2022-09-17T03:38:00.767Z,0.50
2022-09-17T03:40:28.107Z,0.47
2022-09-17T03:42:56.357Z,0.70
2022-09-17T03:45:23.606Z,0.50
2022-09-17T03:47:50.951Z,0.50
2022-09-17T03:50:18.247Z,0.52
2022-09-17T03:52:45.512Z,0.65
2022-09-17T03:55:12.819Z,0.50
2022-09-17T03:57:40.183Z,0.55
2022-09-17T04:00:08.404Z,0.50
2022-09-17T04:02:41.680Z,0.50
2022-09-17T04:05:09.669Z,0.35
2022-09-17T04:07:36.962Z,0.50
2022-09-17T04:10:05.459Z,0.60
2022-09-17T04:12:32.774Z,0.50
2022-09-17T04:15:00.079Z,0.40
2022-09-17T04:17:28.314Z,0.40
2022-09-17T04:19:55.713Z,0.43
2022-09-17T04:22:23.111Z,0.43
2022-09-17T04:24:50.517Z,0.52
2022-09-17T04:27:18.044Z,0.50
2022-09-17T04:29:45.364Z,0.40
2022-09-17T04:32:12.621Z,0.52
2022-09-17T04:34:39.948Z,0.43
2022-09-17T04:37:07.294Z,0.40
2022-09-17T04:39:34.667Z,0.50
2022-09-17T04:42:02.038Z,0.60
2022-09-17T04:44:29.319Z,0.43
2022-09-17T04:46:56.696Z,0.40
2022-09-17T04:49:24.000Z,0.40
2022-09-17T04:51:51.287Z,0.60
2022-09-17T04:54:18.734Z,0.50
2022-09-17T04:56:46.023Z,0.40
2022-09-17T04:59:13.260Z,0.40
2022-09-17T05:01:40.627Z,0.50
2022-09-17T05:04:07.969Z,0.50
2022-09-17T05:06:35.246Z,0.47
2022-09-17T05:09:02.490Z,0.40
2022-09-17T05:11:30.071Z,0.63
2022-09-17T05:13:57.358Z,0.50
2022-09-17T05:16:24.741Z,0.88
2022-09-17T05:18:52.017Z,0.50
2022-09-17T05:21:20.600Z,0.50
2022-09-17T05:23:48.127Z,0.60
2022-09-17T05:26:15.788Z,0.73
2022-09-17T05:28:43.016Z,0.38
2022-09-17T05:31:10.448Z,0.38
2022-09-17T05:33:37.738Z,0.50
2022-09-17T05:36:05.105Z,0.38
2022-09-17T05:38:32.406Z,0.70
2022-09-17T05:40:59.620Z,0.50
2022-09-17T05:43:26.868Z,0.60
2022-09-17T05:45:54.750Z,0.40
2022-09-17T05:48:21.990Z,0.63
2022-09-17T05:50:49.295Z,0.30
2022-09-17T05:53:16.716Z,0.35
2022-09-17T05:55:43.895Z,0.55
2022-09-17T05:58:12.781Z,0.40
2022-09-17T06:00:41.269Z,0.30
2022-09-17T06:03:12.853Z,0.75
2022-09-17T06:05:40.938Z,0.50
2022-09-17T06:08:09.300Z,0.88
2022-09-17T06:10:38.608Z,0.30
2022-09-17T06:13:06.298Z,0.35
2022-09-17T06:15:33.716Z,0.50
2022-09-17T06:18:00.993Z,0.40
2022-09-17T06:20:28.249Z,0.40
2022-09-17T06:22:59.074Z,0.50
2022-09-17T06:25:26.733Z,0.40
2022-09-17T06:27:53.953Z,0.35
2022-09-17T06:30:21.250Z,0.50
2022-09-17T06:32:48.575Z,0.55
2022-09-17T06:35:16.060Z,0.65
2022-09-17T06:37:43.401Z,0.82
2022-09-17T06:40:10.994Z,0.45
2022-09-17T06:42:38.313Z,0.73
2022-09-17T06:45:10.176Z,0.50
2022-09-17T06:47:39.421Z,0.57
2022-09-17T06:50:06.951Z,0.63
2022-09-17T06:52:34.355Z,0.40
2022-09-17T06:55:01.608Z,0.50
2022-09-17T06:57:28.883Z,0.60
2022-09-17T06:59:56.129Z,0.65
2022-09-17T07:02:23.425Z,0.52
2022-09-17T07:04:50.728Z,0.43
2022-09-17T07:07:18.033Z,0.50
2022-09-17T07:09:45.878Z,0.60
2022-09-17T07:12:14.123Z,0.60
2022-09-17T07:14:41.421Z,0.43
2022-09-17T07:17:08.657Z,0.70
2022-09-17T07:19:35.963Z,0.50
2022-09-17T07:22:03.536Z,0.50
2022-09-17T07:24:32.829Z,0.63
2022-09-17T07:27:01.764Z,0.43
2022-09-17T07:29:29.211Z,0.70
2022-09-17T07:31:58.466Z,0.60
2022-09-17T07:34:28.856Z,0.70
2022-09-17T07:36:56.214Z,0.60
2022-09-17T07:39:23.460Z,0.60
2022-09-17T07:41:50.750Z,0.50
2022-09-17T07:44:18.646Z,0.70
2022-09-17T07:46:45.888Z,0.50
2022-09-17T07:49:13.151Z,0.73
2022-09-17T07:51:40.659Z,0.70
2022-09-17T07:54:08.140Z,0.50
2022-09-17T07:56:35.656Z,0.60
2022-09-17T07:59:03.870Z,0.60
2022-09-17T08:01:36.757Z,0.50
2022-09-17T08:04:04.919Z,0.60
2022-09-17T08:06:36.691Z,0.50
2022-09-17T08:09:04.424Z,0.40
2022-09-17T08:11:55.159Z,0.40
2022-09-17T08:14:19.447Z,0.40
2022-09-17T08:16:47.476Z,0.40
2022-09-17T08:19:14.876Z,0.45
2022-09-17T08:21:42.123Z,0.60
2022-09-17T08:24:09.375Z,0.43
2022-09-17T08:26:36.742Z,0.45
2022-09-17T08:29:04.081Z,0.47
2022-09-17T08:31:33.514Z,0.52
2022-09-17T08:34:01.138Z,0.50
2022-09-17T08:36:28.726Z,1.00
2022-09-17T08:38:56.815Z,0.40
2022-09-17T08:41:44.303Z,0.30
2022-09-17T08:44:42.830Z,0.40
2022-09-17T08:47:21.652Z,0.30
2022-09-17T08:49:53.949Z,0.30
2022-09-17T08:52:49.992Z,0.20
2022-09-17T08:55:35.611Z,0.30
2022-09-17T08:58:39.171Z,0.20
2022-09-17T09:01:25.314Z,0.20
2022-09-17T09:03:52.636Z,0.30
2022-09-17T09:06:27.251Z,0.28
2022-09-17T09:11:31.111Z,0.40
2022-09-17T09:14:32.490Z,0.35
2022-09-17T09:17:04.212Z,0.20
2022-09-17T09:19:38.447Z,1.33
2022-09-17T09:22:43.130Z,0.35
2022-09-17T09:25:27.076Z,0.30
2022-09-17T09:28:12.662Z,0.20
2022-09-17T09:31:10.233Z,0.30
2022-09-17T09:33:44.420Z,0.30
2022-09-17T09:36:16.681Z,0.30
2022-09-17T09:38:51.409Z,0.30
2022-09-17T09:44:05.604Z,0.30
2022-09-17T09:46:51.275Z,0.30
2022-09-17T09:49:36.399Z,0.30
2022-09-17T09:52:27.101Z,0.30
2022-09-17T09:55:26.384Z,1.23
2022-09-17T09:58:03.464Z,0.17
2022-09-17T10:00:43.792Z,0.20
2022-09-17T10:03:26.477Z,0.20
2022-09-17T10:05:59.522Z,0.20
2022-09-17T10:08:28.667Z,0.40
2022-09-17T10:11:01.798Z,0.35
2022-09-17T10:13:32.721Z,0.40
2022-09-17T10:16:25.497Z,0.22
2022-09-17T10:19:25.859Z,0.20
2022-09-17T10:21:53.670Z,0.10
2022-09-17T10:24:33.932Z,0.20
2022-09-17T10:27:03.967Z,0.22
2022-09-17T10:29:31.894Z,0.20
2022-09-17T10:31:59.750Z,0.30
2022-09-17T10:34:29.468Z,0.20
2022-09-17T10:36:57.383Z,0.25
2022-09-17T10:39:32.753Z,0.20
2022-09-17T10:42:02.755Z,0.30
2022-09-17T10:44:35.867Z,0.20
2022-09-17T10:47:31.032Z,0.30
2022-09-17T10:50:01.605Z,0.57
2022-09-17T10:52:34.831Z,0.22
2022-09-17T10:55:33.593Z,0.20
2022-09-17T10:58:09.889Z,0.20
2022-09-17T11:00:50.443Z,0.20
2022-09-17T11:03:45.583Z,0.20
2022-09-17T11:06:51.250Z,0.10
2022-09-17T11:12:44.501Z,0.10
2022-09-17T11:15:43.391Z,0.20
2022-09-17T11:18:48.400Z,0.20
2022-09-17T11:21:38.865Z,0.20
2022-09-17T11:24:44.870Z,0.17
2022-09-17T11:27:12.028Z,0.20
2022-09-17T11:30:08.973Z,0.20
2022-09-17T11:33:17.092Z,0.20
2022-09-17T11:36:04.472Z,0.25
2022-09-17T11:38:51.254Z,0.10
2022-09-17T11:41:27.777Z,0.20
2022-09-17T11:44:13.331Z,0.20
2022-09-17T11:47:44.698Z,0.20
2022-09-17T11:50:18.020Z,0.10
2022-09-17T11:53:01.003Z,0.20
2022-09-17T11:55:35.739Z,0.20
2022-09-17T12:00:45.499Z,0.90
2022-09-17T12:03:28.966Z,0.30
2022-09-17T12:06:00.415Z,0.30
2022-09-17T12:08:43.598Z,0.20
2022-09-17T12:11:23.034Z,0.20
2022-09-17T12:13:54.790Z,0.10
2022-09-17T12:16:43.829Z,0.20
2022-09-17T12:19:43.271Z,0.20
2022-09-17T12:22:22.852Z,0.05
2022-09-17T12:24:54.753Z,0.10
2022-09-17T12:27:28.097Z,0.13
2022-09-17T12:30:12.334Z,0.20
2022-09-17T12:32:46.785Z,0.20
2022-09-17T12:35:14.077Z,0.20
2022-09-17T12:37:51.511Z,0.20
2022-09-17T12:40:28.869Z,0.40
2022-09-17T12:43:18.184Z,0.40
2022-09-17T12:45:54.322Z,0.30
2022-09-17T12:48:27.287Z,0.20
2022-09-17T12:51:24.344Z,0.30
2022-09-17T12:54:15.194Z,0.10
2022-09-17T12:56:51.725Z,0.50
2022-09-17T12:59:20.811Z,0.20
2022-09-17T13:01:54.386Z,0.32
2022-09-17T13:04:59.505Z,0.28
2022-09-17T13:07:54.822Z,0.30
2022-09-17T13:10:21.962Z,0.22
2022-09-17T13:13:01.741Z,0.20
2022-09-17T13:15:47.099Z,0.30
2022-09-17T13:18:27.768Z,0.43
2022-09-17T13:21:08.272Z,0.40
2022-09-17T13:23:44.623Z,0.40
2022-09-17T13:26:17.157Z,0.40
2022-09-17T13:28:48.021Z,0.40
2022-09-17T13:31:37.149Z,0.20
2022-09-17T13:34:04.732Z,0.20
2022-09-17T13:36:51.363Z,0.30
2022-09-17T13:39:38.948Z,0.40
2022-09-17T13:42:09.708Z,0.28
2022-09-17T13:44:42.888Z,0.35
2022-09-17T13:47:31.438Z,0.30
2022-09-17T13:50:06.282Z,0.20
2022-09-17T13:52:46.900Z,0.20
2022-09-17T13:55:42.759Z,0.20
2022-09-17T13:58:10.422Z,0.20
2022-09-17T14:00:56.993Z,0.25
2022-09-17T14:03:40.773Z,0.28
2022-09-17T14:06:08.540Z,0.15
2022-09-17T14:08:45.215Z,0.20
2022-09-17T14:11:33.765Z,0.35
2022-09-17T14:14:08.000Z,0.30
2022-09-17T14:16:46.005Z,0.30
2022-09-17T14:19:16.310Z,0.28
2022-09-17T14:22:01.726Z,0.32
2022-09-17T14:24:46.974Z,0.30
2022-09-17T14:27:30.084Z,0.40
2022-09-17T14:30:14.615Z,0.70
2022-09-17T14:33:00.371Z,0.30
2022-09-17T14:35:27.577Z,0.30
2022-09-17T14:38:08.028Z,0.40
2022-09-17T14:40:35.742Z,0.30
2022-09-17T14:43:03.820Z,0.70
2022-09-17T14:45:36.978Z,0.40
2022-09-17T14:48:31.845Z,0.40
2022-09-17T14:51:17.738Z,0.38
2022-09-17T14:53:46.696Z,0.10
2022-09-17T14:56:17.177Z,0.52
2022-09-17T14:58:51.251Z,0.30
2022-09-17T15:01:30.362Z,0.20
2022-09-17T15:04:12.916Z,0.20
2022-09-17T15:06:41.550Z,0.22
2022-09-17T15:09:26.377Z,0.20
2022-09-17T15:14:33.787Z,0.28
2022-09-17T15:17:03.546Z,0.20
2022-09-17T15:19:38.909Z,0.20
2022-09-17T15:22:46.775Z,0.30
2022-09-17T15:25:21.354Z,0.20
2022-09-17T15:27:48.743Z,0.20
2022-09-17T15:30:22.776Z,0.22
2022-09-17T15:33:00.423Z,0.20
2022-09-17T15:35:30.622Z,0.30
2022-09-17T15:40:49.936Z,0.20
2022-09-17T15:43:29.507Z,0.30
2022-09-17T15:46:00.886Z,0.20
2022-09-17T15:48:28.152Z,0.20
2022-09-17T15:50:58.578Z,0.20
2022-09-17T15:53:27.606Z,0.20
2022-09-17T15:56:06.372Z,0.20
2022-09-17T15:58:38.969Z,0.20
2022-09-17T16:01:15.527Z,0.20
2022-09-17T16:03:45.492Z,0.20
2022-09-17T16:06:18.932Z,0.20
2022-09-17T16:08:51.718Z,0.20
2022-09-17T16:11:21.318Z,0.17
2022-09-17T16:13:53.745Z,0.20
2022-09-17T16:16:24.440Z,0.20
2022-09-17T16:18:51.881Z,0.20
2022-09-17T16:21:20.055Z,0.22
2022-09-17T16:23:47.587Z,0.20
2022-09-17T16:26:19.306Z,0.25
2022-09-17T16:28:49.339Z,0.20
2022-09-17T16:31:16.783Z,0.22
2022-09-17T16:33:44.111Z,0.20
2022-09-17T16:36:11.616Z,0.25
2022-09-17T16:38:40.783Z,0.30
2022-09-17T16:41:08.444Z,0.30
2022-09-17T16:43:37.367Z,0.22
2022-09-17T16:46:07.641Z,0.30
2022-09-17T16:48:35.269Z,0.28
2022-09-17T16:51:10.537Z,0.28
2022-09-17T16:53:38.321Z,0.30
2022-09-17T16:56:13.820Z,0.38
2022-09-17T16:58:41.956Z,0.30
2022-09-17T17:01:16.313Z,0.30
2022-09-17T17:06:17.540Z,0.40
2022-09-17T17:08:44.887Z,0.20
2022-09-17T17:11:12.305Z,0.40
2022-09-17T17:13:39.610Z,0.30
2022-09-17T17:16:12.090Z,0.30
2022-09-17T17:18:42.052Z,0.30
2022-09-17T17:21:12.386Z,0.30
2022-09-17T17:23:39.756Z,0.30
2022-09-17T17:26:07.053Z,0.40
2022-09-17T17:28:36.481Z,0.30
2022-09-17T17:31:06.664Z,0.30
2022-09-17T17:33:34.334Z,0.28
2022-09-17T17:36:08.088Z,0.30
2022-09-17T17:38:36.875Z,0.30
2022-09-17T17:41:15.358Z,0.30
2022-09-17T17:43:42.846Z,0.40
2022-09-17T17:46:12.242Z,0.40
2022-09-17T17:48:39.773Z,0.30
2022-09-17T17:51:09.165Z,0.30
2022-09-17T17:53:37.269Z,0.40
2022-09-17T17:56:07.178Z,0.40
2022-09-17T17:58:35.512Z,0.50
2022-09-17T18:01:26.191Z,0.55
2022-09-17T18:03:58.318Z,0.50
2022-09-17T18:06:27.040Z,0.40
2022-09-17T18:08:55.361Z,0.30
2022-09-17T18:11:23.659Z,0.60
2022-09-17T18:13:52.671Z,0.80
2022-09-17T18:16:20.715Z,0.40
2022-09-17T18:18:48.939Z,0.32
2022-09-17T18:21:22.010Z,0.40
2022-09-17T18:23:53.596Z,0.50
2022-09-17T18:26:26.459Z,0.47
2022-09-17T18:28:54.014Z,0.50
2022-09-17T18:31:22.996Z,0.43
2022-09-17T18:34:02.107Z,0.40
2022-09-17T18:36:31.958Z,0.40
2022-09-17T18:39:56.363Z,0.30
2022-09-17T18:41:49.547Z,0.38
2022-09-17T18:44:19.115Z,0.35
2022-09-17T18:46:48.095Z,0.35
2022-09-17T18:49:15.943Z,0.50
2022-09-17T18:51:43.274Z,0.50
2022-09-17T18:54:12.737Z,0.60
2022-09-17T18:56:41.789Z,0.52
2022-09-17T18:59:10.235Z,1.00
2022-09-17T19:01:38.035Z,1.40
2022-09-17T19:04:07.840Z,0.60
2022-09-17T19:06:35.943Z,0.90
2022-09-17T19:09:05.163Z,1.15
2022-09-17T19:11:34.111Z,1.48
2022-09-17T19:14:01.610Z,0.90
2022-09-17T19:16:29.041Z,0.80
2022-09-17T19:18:56.630Z,0.90
2022-09-17T19:21:24.159Z,0.90
2022-09-17T19:23:53.084Z,0.70
2022-09-17T19:26:22.688Z,0.80
2022-09-17T19:28:54.754Z,0.80
2022-09-17T19:31:22.623Z,0.60
2022-09-17T19:33:51.665Z,0.85
2022-09-17T19:36:20.564Z,0.70
2022-09-17T19:38:48.654Z,0.80
2022-09-17T19:41:19.536Z,0.80
2022-09-17T19:43:47.388Z,0.80
2022-09-17T19:46:16.683Z,0.93
2022-09-17T19:48:55.514Z,0.77
2022-09-17T19:51:24.191Z,1.00
2022-09-17T19:53:52.205Z,1.35
2022-09-17T19:56:23.684Z,1.88
2022-09-17T19:58:51.407Z,1.27
2022-09-17T20:01:19.202Z,1.00
2022-09-17T20:03:47.373Z,1.20
2022-09-17T20:06:17.049Z,1.33
2022-09-17T20:08:49.459Z,1.80
2022-09-17T20:11:17.667Z,1.48
2022-09-17T20:13:44.991Z,1.70
2022-09-17T20:16:17.738Z,1.52
2022-09-17T20:18:45.495Z,1.63
2022-09-17T20:21:20.141Z,1.30
2022-09-17T20:26:15.649Z,1.58
2022-09-17T20:28:43.900Z,1.83
2022-09-17T20:31:13.787Z,2.08
2022-09-17T20:33:42.048Z,1.85
2022-09-17T20:36:13.106Z,2.03
2022-09-17T20:41:28.311Z,1.65
2022-09-17T20:43:55.825Z,1.92
2022-09-17T20:46:28.622Z,1.52
2022-09-17T20:48:57.684Z,1.33
2022-09-17T20:51:27.743Z,2.03
2022-09-17T20:53:57.378Z,2.00
2022-09-17T20:56:27.410Z,1.90
2022-09-17T20:59:03.357Z,1.63
2022-09-17T21:01:36.917Z,1.50
2022-09-17T21:04:07.007Z,2.10
2022-09-17T21:06:41.073Z,1.20
2022-09-17T21:09:12.098Z,1.70
2022-09-17T21:11:39.494Z,1.35
2022-09-17T21:14:06.973Z,1.50
2022-09-17T21:16:34.455Z,1.52
2022-09-17T21:19:05.353Z,1.60
2022-09-17T21:21:35.704Z,1.40
2022-09-17T21:24:05.040Z,1.48
2022-09-17T21:26:34.367Z,1.65
2022-09-17T21:29:01.873Z,1.52
2022-09-17T21:31:36.829Z,1.70
2022-09-17T21:34:07.189Z,1.48
2022-09-17T21:36:36.575Z,1.58
2022-09-17T21:39:15.289Z,1.80
2022-09-17T21:41:43.861Z,1.77
2022-09-17T21:44:12.590Z,2.55
2022-09-17T21:46:41.427Z,2.55
2022-09-17T21:49:09.036Z,2.30
2022-09-17T21:51:39.105Z,2.70
2022-09-17T21:54:09.466Z,1.92
2022-09-17T21:56:37.176Z,2.10
2022-09-17T21:59:06.971Z,1.40
2022-09-17T22:01:39.946Z,1.92
2022-09-17T22:04:09.520Z,1.42
2022-09-17T22:06:38.121Z,1.45
2022-09-17T22:09:07.683Z,1.00
2022-09-17T22:11:37.148Z,0.88
2022-09-17T22:14:08.907Z,0.90
2022-09-17T22:16:38.884Z,1.00
2022-09-17T22:19:07.295Z,1.23
2022-09-17T22:21:44.663Z,1.10
2022-09-17T22:24:12.518Z,0.70
2022-09-17T22:26:43.593Z,1.20
2022-09-17T22:29:13.993Z,1.17
2022-09-17T22:31:41.864Z,0.80
2022-09-17T22:34:11.165Z,0.93
2022-09-17T22:36:38.830Z,0.85
2022-09-17T22:39:06.772Z,1.13
2022-09-17T22:41:36.370Z,0.70
2022-09-17T22:44:07.662Z,0.75
2022-09-17T22:46:39.346Z,0.73
2022-09-17T22:49:11.077Z,0.40
2022-09-17T22:51:39.377Z,0.40
2022-09-17T22:54:07.500Z,0.50
2022-09-17T22:56:36.359Z,0.60
2022-09-17T22:59:04.503Z,0.50
2022-09-17T23:01:34.037Z,0.60
2022-09-17T23:04:02.136Z,0.80
2022-09-17T23:06:32.218Z,0.65
2022-09-17T23:09:00.219Z,0.60
2022-09-17T23:11:31.010Z,0.40
2022-09-17T23:14:03.019Z,0.70
2022-09-17T23:16:42.113Z,0.60
2022-09-17T23:19:09.445Z,0.70
2022-09-17T23:21:38.147Z,0.65
2022-09-17T23:24:05.845Z,0.40
2022-09-17T23:26:33.576Z,0.73
2022-09-17T23:29:05.597Z,0.80
2022-09-17T23:31:36.708Z,0.50
2022-09-17T23:34:05.719Z,0.55
2022-09-17T23:36:38.384Z,0.50
2022-09-17T23:39:07.231Z,0.50
2022-09-17T23:41:37.027Z,0.55
2022-09-17T23:44:12.074Z,1.17
2022-09-17T23:46:41.520Z,0.30
2022-09-17T23:49:12.305Z,0.40
2022-09-17T23:51:39.599Z,0.60
2022-09-17T23:54:07.403Z,0.40
2022-09-17T23:56:35.345Z,0.50
2022-09-17T23:59:04.092Z,0.50
